createdAt,value
2023-03-29T00:02:04.032Z,101677.97
2023-03-29T00:04:30.745Z,101677.22
2023-03-29T00:06:57.407Z,101677.22
2023-03-29T00:09:26.548Z,101673.09
2023-03-29T00:11:53.071Z,101659.38
2023-03-29T00:14:19.667Z,101664.59
2023-03-29T00:16:47.080Z,101650.84
2023-03-29T00:19:13.905Z,101649.22
2023-03-29T00:21:40.874Z,101643.41
2023-03-29T00:24:07.596Z,101649.31
2023-03-29T00:26:34.107Z,101650.84
2023-03-29T00:29:00.691Z,101632.75
2023-03-29T00:31:27.515Z,101644.72
2023-03-29T00:33:54.166Z,101634.47
2023-03-29T00:36:22.163Z,101632.84
2023-03-29T00:38:48.790Z,101635.41
2023-03-29T00:41:15.331Z,101633.13
2023-03-29T00:43:55.962Z,101627.44
2023-03-29T00:46:23.270Z,101625.72
2023-03-29T00:48:53.483Z,101611.97
2023-03-29T00:51:22.178Z,101618.78
2023-03-29T00:53:53.095Z,101620.50
2023-03-29T00:56:29.942Z,101619.94
2023-03-29T00:59:07.167Z,101601.94
2023-03-29T01:01:45.722Z,101599.47
2023-03-29T01:04:24.083Z,101606.63
2023-03-29T01:06:59.685Z,101599.53
2023-03-29T01:09:30.466Z,101596.16
2023-03-29T01:12:02.272Z,101600.66
2023-03-29T01:14:48.828Z,101585.16
2023-03-29T01:17:16.072Z,101589.31
2023-03-29T01:19:48.540Z,101597.16
2023-03-29T01:22:39.848Z,101593.75
2023-03-29T01:25:40.482Z,101593.94
2023-03-29T01:28:17.396Z,101575.31
2023-03-29T01:30:56.709Z,101583.16
2023-03-29T01:33:33.478Z,101531.72
2023-03-29T01:36:12.984Z,101573.78
2023-03-29T01:38:45.221Z,101582.63
2023-03-29T01:41:12.448Z,101573.59
2023-03-29T01:43:59.135Z,101564.41
2023-03-29T01:46:37.628Z,101572.41
2023-03-29T01:49:11.190Z,101558.47
2023-03-29T01:51:43.481Z,101552.47
2023-03-29T01:54:15.815Z,101556.84
2023-03-29T01:56:45.732Z,101551.00
2023-03-29T01:59:17.713Z,101557.19
2023-03-29T02:01:51.065Z,101557.13
2023-03-29T02:04:22.903Z,101537.75
2023-03-29T02:06:54.212Z,101528.56
2023-03-29T02:09:22.308Z,101539.72
2023-03-29T02:11:51.591Z,101538.91
2023-03-29T02:14:18.120Z,101531.00
2023-03-29T02:16:46.303Z,101528.50
2023-03-29T02:19:13.621Z,101529.38
2023-03-29T02:21:53.273Z,101527.94
2023-03-29T02:24:22.178Z,101510.53
2023-03-29T02:26:49.395Z,101520.06
2023-03-29T02:29:16.415Z,101522.81
2023-03-29T02:31:50.074Z,101508.31
2023-03-29T02:34:16.591Z,101526.47
2023-03-29T02:36:47.508Z,101516.31
2023-03-29T02:39:15.966Z,101516.41
2023-03-29T02:41:45.820Z,101502.69
2023-03-29T02:44:16.734Z,101494.94
2023-03-29T02:46:43.991Z,101498.53
2023-03-29T02:49:11.602Z,101494.28
2023-03-29T02:51:38.852Z,101497.78
2023-03-29T02:54:13.535Z,101465.63
2023-03-29T02:56:48.161Z,101492.72
2023-03-29T02:59:19.423Z,101498.66
2023-03-29T03:01:46.342Z,101480.59
2023-03-29T03:04:13.356Z,101474.63
2023-03-29T03:06:40.511Z,101468.78
2023-03-29T03:09:07.690Z,101474.88
2023-03-29T03:11:34.572Z,101474.00
2023-03-29T03:14:01.537Z,101460.81
2023-03-29T03:16:28.187Z,101475.72
2023-03-29T03:18:55.752Z,101478.19
2023-03-29T03:21:22.973Z,101457.63
2023-03-29T03:23:49.757Z,101462.81
2023-03-29T03:26:18.081Z,101462.44
2023-03-29T03:28:45.710Z,101442.31
2023-03-29T03:31:15.639Z,101464.84
2023-03-29T03:33:42.317Z,101440.47
2023-03-29T03:36:11.890Z,101446.53
2023-03-29T03:38:38.801Z,101444.91
2023-03-29T03:41:09.411Z,101463.06
2023-03-29T03:43:36.187Z,101429.53
2023-03-29T03:46:02.883Z,101451.25
2023-03-29T03:48:29.422Z,101435.50
2023-03-29T03:50:58.380Z,101453.19
2023-03-29T03:53:27.322Z,101450.75
2023-03-29T03:55:56.092Z,101442.88
2023-03-29T03:58:23.110Z,101442.78
2023-03-29T04:00:50.730Z,101456.59
2023-03-29T04:03:18.224Z,101444.41
2023-03-29T04:05:46.475Z,101460.88
2023-03-29T04:08:13.852Z,101453.22
2023-03-29T04:10:40.849Z,101451.56
2023-03-29T04:13:07.686Z,101447.13
2023-03-29T04:15:38.544Z,101459.38
2023-03-29T04:18:07.516Z,101454.25
2023-03-29T04:20:34.669Z,101439.66
2023-03-29T04:23:01.936Z,101438.75
2023-03-29T04:25:28.975Z,101446.50
2023-03-29T04:27:56.391Z,101431.81
2023-03-29T04:30:23.488Z,101454.28
2023-03-29T04:32:50.201Z,101423.78
2023-03-29T04:35:16.751Z,101437.81
2023-03-29T04:37:43.608Z,101433.59
2023-03-29T04:40:14.418Z,101439.06
2023-03-29T04:42:45.957Z,101422.84
2023-03-29T04:45:22.582Z,101428.13
2023-03-29T04:47:49.627Z,101423.75
2023-03-29T04:50:16.270Z,101412.28
2023-03-29T04:52:42.886Z,101427.13
2023-03-29T04:55:10.508Z,101427.97
2023-03-29T04:57:37.109Z,101406.19
2023-03-29T05:00:14.237Z,101410.72
2023-03-29T05:02:44.938Z,101418.91
2023-03-29T05:05:11.992Z,101422.28
2023-03-29T05:07:39.369Z,101424.03
2023-03-29T05:10:06.953Z,101418.94
2023-03-29T05:12:33.592Z,101422.25
2023-03-29T05:15:00.400Z,101421.41
2023-03-29T05:17:27.490Z,101420.44
2023-03-29T05:19:54.327Z,101427.47
2023-03-29T05:22:21.715Z,101403.34
2023-03-29T05:24:48.445Z,101408.47
2023-03-29T05:27:15.296Z,101410.19
2023-03-29T05:29:41.893Z,101416.28
2023-03-29T05:32:08.490Z,101422.25
2023-03-29T05:34:35.385Z,101422.25
2023-03-29T05:37:02.264Z,101417.06
2023-03-29T05:39:29.087Z,101422.28
2023-03-29T05:41:55.873Z,101424.13
2023-03-29T05:44:22.495Z,101424.22
2023-03-29T05:46:52.760Z,101432.03
2023-03-29T05:49:19.405Z,101421.91
2023-03-29T05:51:46.397Z,101421.00
2023-03-29T05:54:13.081Z,101432.22
2023-03-29T05:56:39.637Z,101436.72
2023-03-29T05:59:06.215Z,101431.66
2023-03-29T06:01:32.759Z,101423.91
2023-03-29T06:03:59.476Z,101423.97
2023-03-29T06:06:26.422Z,101425.75
2023-03-29T06:08:53.034Z,101419.63
2023-03-29T06:11:19.592Z,101419.78
2023-03-29T06:13:46.278Z,101437.28
2023-03-29T06:16:13.509Z,101433.84
2023-03-29T06:18:41.156Z,101424.41
2023-03-29T06:21:09.319Z,101446.16
2023-03-29T06:23:36.956Z,101438.41
2023-03-29T06:26:04.183Z,101432.22
2023-03-29T06:28:30.715Z,101426.19
2023-03-29T06:31:02.546Z,101438.59
2023-03-29T06:33:30.671Z,101434.59
2023-03-29T06:35:57.696Z,101425.09
2023-03-29T06:38:26.794Z,101446.75
2023-03-29T06:41:01.013Z,101457.22
2023-03-29T06:43:27.663Z,101439.06
2023-03-29T06:45:54.910Z,101451.34
2023-03-29T06:48:21.642Z,101435.72
2023-03-29T06:50:49.366Z,101457.44
2023-03-29T06:53:17.008Z,101454.19
2023-03-29T06:55:43.828Z,101429.94
2023-03-29T06:58:11.101Z,101442.41
2023-03-29T07:00:39.269Z,101444.22
2023-03-29T07:03:08.206Z,101447.03
2023-03-29T07:05:36.498Z,101455.00
2023-03-29T07:08:05.818Z,101458.47
2023-03-29T07:10:38.309Z,101459.28
2023-03-29T07:13:06.596Z,101462.03
2023-03-29T07:15:33.594Z,101451.19
2023-03-29T07:18:02.152Z,101434.75
2023-03-29T07:20:28.937Z,101444.41
2023-03-29T07:22:55.461Z,101449.81
2023-03-29T07:25:26.188Z,101438.78
2023-03-29T07:27:53.228Z,101457.97
2023-03-29T07:30:22.870Z,101455.56
2023-03-29T07:32:51.137Z,101437.69
2023-03-29T07:35:18.292Z,101442.41
2023-03-29T07:37:45.586Z,101440.75
2023-03-29T07:40:16.189Z,101448.78
2023-03-29T07:42:44.222Z,101436.72
2023-03-29T07:45:13.691Z,101450.00
2023-03-29T07:47:41.104Z,101440.91
2023-03-29T07:50:08.869Z,101459.94
2023-03-29T07:52:38.583Z,101449.47
2023-03-29T07:55:10.904Z,101454.50
2023-03-29T07:57:37.485Z,101454.59
2023-03-29T08:00:17.583Z,101433.72
2023-03-29T08:02:49.915Z,101440.00
2023-03-29T08:05:26.061Z,101455.50
2023-03-29T08:07:52.830Z,101456.47
2023-03-29T08:10:21.053Z,101456.66
2023-03-29T08:12:49.458Z,101449.00
2023-03-29T08:15:16.617Z,101449.13
2023-03-29T08:17:43.544Z,101438.91
2023-03-29T08:20:13.004Z,101435.69
2023-03-29T08:22:40.434Z,101444.56
2023-03-29T08:25:08.035Z,101428.25
2023-03-29T08:27:35.264Z,101443.88
2023-03-29T08:30:01.818Z,101439.59
2023-03-29T08:32:28.528Z,101435.47
2023-03-29T08:34:55.213Z,101431.34
2023-03-29T08:37:21.921Z,101415.84
2023-03-29T08:39:48.472Z,101427.38
2023-03-29T08:42:52.647Z,101430.09
2023-03-29T08:45:23.526Z,101428.56
2023-03-29T08:47:56.269Z,101423.56
2023-03-29T08:50:34.038Z,101415.78
2023-03-29T08:53:23.835Z,101404.16
2023-03-29T08:55:55.781Z,101424.38
2023-03-29T08:58:26.813Z,101426.25
2023-03-29T09:00:55.349Z,101437.56
2023-03-29T09:03:22.258Z,101441.56
2023-03-29T09:05:56.425Z,101430.31
2023-03-29T09:08:23.375Z,101439.72
2023-03-29T09:11:11.986Z,101446.78
2023-03-29T09:13:49.122Z,101446.97
2023-03-29T09:16:32.045Z,101441.91
2023-03-29T09:19:29.819Z,101447.06
2023-03-29T09:22:16.135Z,101453.25
2023-03-29T09:25:24.238Z,101453.13
2023-03-29T09:27:59.603Z,101440.13
2023-03-29T09:30:39.812Z,101456.59
2023-03-29T09:33:21.713Z,101454.28
2023-03-29T09:35:56.321Z,101431.09
2023-03-29T09:38:23.008Z,101441.56
2023-03-29T09:41:12.443Z,101443.50
2023-03-29T09:43:42.896Z,101448.03
2023-03-29T09:46:21.703Z,101441.22
2023-03-29T09:48:50.523Z,101455.06
2023-03-29T09:51:19.462Z,101440.63
2023-03-29T09:53:47.153Z,101421.00
2023-03-29T09:56:15.897Z,101412.78
2023-03-29T09:58:44.258Z,101431.81
2023-03-29T10:01:14.488Z,101417.06
2023-03-29T10:03:41.549Z,101440.41
2023-03-29T10:06:11.964Z,101416.91
2023-03-29T10:08:50.019Z,101429.00
2023-03-29T10:11:30.451Z,101418.50
2023-03-29T10:14:02.798Z,101425.66
2023-03-29T10:16:35.245Z,101429.91
2023-03-29T10:19:21.250Z,101426.50
2023-03-29T10:21:49.325Z,101414.28
2023-03-29T10:24:22.710Z,101424.00
2023-03-29T10:26:56.352Z,101414.56
2023-03-29T10:29:24.793Z,101415.50
2023-03-29T10:31:52.874Z,101404.25
2023-03-29T10:34:20.618Z,101405.13
2023-03-29T10:36:58.915Z,101412.06
2023-03-29T10:39:29.103Z,101419.94
2023-03-29T10:41:55.970Z,101413.06
2023-03-29T10:44:41.208Z,101398.44
2023-03-29T10:47:14.352Z,101407.09
2023-03-29T10:49:47.404Z,101410.56
2023-03-29T10:52:16.295Z,101389.84
2023-03-29T10:54:43.444Z,101405.41
2023-03-29T10:57:16.785Z,101400.28
2023-03-29T11:00:05.195Z,101398.50
2023-03-29T11:03:02.425Z,101393.25
2023-03-29T11:05:47.915Z,101372.47
2023-03-29T11:08:17.440Z,101388.84
2023-03-29T11:11:03.950Z,101375.06
2023-03-29T11:13:43.152Z,101380.28
2023-03-29T11:16:16.538Z,101385.53
2023-03-29T11:18:57.786Z,101370.78
2023-03-29T11:21:30.627Z,101379.53
2023-03-29T11:24:40.522Z,101375.34
2023-03-29T11:27:12.961Z,101377.09
2023-03-29T11:29:44.571Z,101375.34
2023-03-29T11:33:00.810Z,101372.78
2023-03-29T11:35:32.837Z,101367.53
2023-03-29T11:38:15.881Z,101371.00
2023-03-29T11:40:49.992Z,101375.34
2023-03-29T11:43:25.176Z,101377.09
2023-03-29T11:46:12.009Z,101377.94
2023-03-29T11:48:52.922Z,101382.28
2023-03-29T11:51:35.577Z,101377.03
2023-03-29T11:54:19.288Z,101383.88
2023-03-29T11:57:12.443Z,101371.75
2023-03-29T11:59:45.535Z,101394.25
2023-03-29T12:02:30.943Z,101397.69
2023-03-29T12:05:02.458Z,101386.47
2023-03-29T12:07:44.958Z,101392.56
2023-03-29T12:10:21.258Z,101364.97
2023-03-29T12:12:55.467Z,101375.34
2023-03-29T12:15:27.642Z,101371.00
2023-03-29T12:17:57.223Z,101380.53
2023-03-29T12:20:28.311Z,101363.22
2023-03-29T12:22:55.778Z,101360.63
2023-03-29T12:25:29.691Z,101358.84
2023-03-29T12:28:21.137Z,101372.53
2023-03-29T12:31:02.705Z,101369.88
2023-03-29T12:33:47.309Z,101371.50
2023-03-29T12:36:26.407Z,101380.97
2023-03-29T12:38:53.430Z,101373.19
2023-03-29T12:41:23.294Z,101364.56
2023-03-29T12:43:51.067Z,101359.31
2023-03-29T12:46:25.035Z,101356.75
2023-03-29T12:48:57.197Z,101347.19
2023-03-29T12:51:33.403Z,101347.13
2023-03-29T12:54:08.550Z,101352.31
2023-03-29T12:56:40.893Z,101338.41
2023-03-29T12:59:10.261Z,101331.44
2023-03-29T13:01:41.080Z,101312.38
2023-03-29T13:04:18.814Z,101318.50
2023-03-29T13:06:48.428Z,101320.94
2023-03-29T13:09:29.505Z,101321.78
2023-03-29T13:12:16.244Z,101313.16
2023-03-29T13:14:46.427Z,101313.22
2023-03-29T13:17:22.411Z,101318.47
2023-03-29T13:20:04.003Z,101308.19
2023-03-29T13:22:37.212Z,101296.94
2023-03-29T13:25:41.403Z,101309.00
2023-03-29T13:28:15.002Z,101296.06
2023-03-29T13:30:58.902Z,101277.06
2023-03-29T13:33:55.401Z,101266.69
2023-03-29T13:36:39.200Z,101278.00
2023-03-29T13:39:07.467Z,101282.41
2023-03-29T13:41:39.588Z,101297.88
2023-03-29T13:44:39.631Z,101296.13
2023-03-29T13:47:16.477Z,101292.63
2023-03-29T13:49:51.646Z,101278.72
2023-03-29T13:52:35.192Z,101290.78
2023-03-29T13:55:08.765Z,101282.84
2023-03-29T13:57:40.242Z,101281.94
2023-03-29T14:00:17.899Z,101280.22
2023-03-29T14:02:51.625Z,101274.19
2023-03-29T14:05:21.819Z,101263.97
2023-03-29T14:07:52.612Z,101256.41
2023-03-29T14:10:24.420Z,101245.28
2023-03-29T14:12:51.274Z,101266.00
2023-03-29T14:15:27.730Z,101243.50
2023-03-29T14:17:58.971Z,101241.88
2023-03-29T14:20:28.019Z,101251.50
2023-03-29T14:22:54.623Z,101220.38
2023-03-29T14:25:23.038Z,101250.63
2023-03-29T14:27:49.828Z,101244.56
2023-03-29T14:30:20.290Z,101243.59
2023-03-29T14:32:49.251Z,101240.06
2023-03-29T14:35:16.603Z,101239.16
2023-03-29T14:37:44.108Z,101245.25
2023-03-29T14:40:20.303Z,101225.38
2023-03-29T14:42:48.446Z,101244.41
2023-03-29T14:45:17.715Z,101227.19
2023-03-29T14:47:46.056Z,101232.38
2023-03-29T14:50:19.459Z,101224.63
2023-03-29T14:52:49.285Z,101228.13
2023-03-29T14:55:23.417Z,101222.03
2023-03-29T14:57:53.956Z,101216.94
2023-03-29T15:00:38.989Z,101212.56
2023-03-29T15:03:13.327Z,101214.34
2023-03-29T15:05:48.815Z,101216.09
2023-03-29T15:08:30.878Z,101221.25
2023-03-29T15:10:58.204Z,101196.19
2023-03-29T15:13:25.751Z,101179.75
2023-03-29T15:16:01.813Z,101169.44
2023-03-29T15:18:35.619Z,101149.50
2023-03-29T15:21:02.550Z,101165.94
2023-03-29T15:23:55.514Z,101182.38
2023-03-29T15:26:26.217Z,101161.66
2023-03-29T15:28:55.834Z,101165.19
2023-03-29T15:31:32.494Z,101155.75
2023-03-29T15:34:09.486Z,101140.22
2023-03-29T15:36:42.277Z,101134.22
2023-03-29T15:39:14.128Z,101123.88
2023-03-29T15:41:41.595Z,101103.16
2023-03-29T15:44:08.341Z,101128.19
2023-03-29T15:46:34.969Z,101125.63
2023-03-29T15:49:01.723Z,101122.16
2023-03-29T15:51:28.313Z,101117.00
2023-03-29T15:53:54.850Z,101115.25
2023-03-29T15:56:22.954Z,101083.31
2023-03-29T15:58:49.712Z,101089.34
2023-03-29T16:01:37.458Z,101091.94
2023-03-29T16:04:13.970Z,101097.97
2023-03-29T16:06:41.068Z,101088.47
2023-03-29T16:09:08.732Z,101082.41
2023-03-29T16:11:35.392Z,101067.69
2023-03-29T16:14:02.970Z,101064.28
2023-03-29T16:16:29.662Z,101070.28
2023-03-29T16:18:56.288Z,101065.97
2023-03-29T16:21:23.224Z,101060.75
2023-03-29T16:23:51.448Z,101052.16
2023-03-29T16:26:18.099Z,101032.31
2023-03-29T16:28:44.696Z,101049.59
2023-03-29T16:31:12.923Z,101017.69
2023-03-29T16:33:41.086Z,101028.94
2023-03-29T16:36:08.534Z,101016.84
2023-03-29T16:38:35.447Z,101009.97
2023-03-29T16:41:02.684Z,101016.00
2023-03-29T16:43:29.262Z,101015.16
2023-03-29T16:45:56.929Z,101016.03
2023-03-29T16:48:23.850Z,101006.50
2023-03-29T16:50:50.679Z,101026.34
2023-03-29T16:53:21.706Z,101016.84
2023-03-29T16:55:48.699Z,101022.88
2023-03-29T16:58:15.516Z,101009.06
2023-03-29T17:00:43.067Z,101006.47
2023-03-29T17:03:11.038Z,101005.59
2023-03-29T17:05:41.371Z,101002.16
2023-03-29T17:08:10.178Z,101005.59
2023-03-29T17:10:39.629Z,101015.94
2023-03-29T17:13:06.846Z,100980.59
2023-03-29T17:15:33.787Z,100993.56
2023-03-29T17:18:00.445Z,100994.41
2023-03-29T17:20:27.069Z,100993.56
2023-03-29T17:22:56.064Z,100987.56
2023-03-29T17:25:23.498Z,100982.34
2023-03-29T17:27:50.962Z,100971.13
2023-03-29T17:30:17.643Z,100975.44
2023-03-29T17:32:45.750Z,100968.56
2023-03-29T17:35:13.274Z,100962.53
2023-03-29T17:37:40.091Z,100966.00
2023-03-29T17:40:16.921Z,100956.47
2023-03-29T17:42:46.444Z,100938.34
2023-03-29T17:45:12.967Z,100963.38
2023-03-29T17:47:39.561Z,100955.63
2023-03-29T17:50:07.723Z,100952.16
2023-03-29T17:52:35.323Z,100951.28
2023-03-29T17:55:02.341Z,100966.81
2023-03-29T17:57:28.934Z,100961.63
2023-03-29T17:59:55.553Z,100959.91
2023-03-29T18:02:24.503Z,100951.31
2023-03-29T18:04:51.738Z,100946.13
2023-03-29T18:07:18.433Z,100941.78
2023-03-29T18:09:45.140Z,100937.50
2023-03-29T18:12:11.698Z,100923.69
2023-03-29T18:14:38.405Z,100915.94
2023-03-29T18:17:05.002Z,100904.72
2023-03-29T18:19:31.896Z,100896.09
2023-03-29T18:21:58.649Z,100898.66
2023-03-29T18:24:25.218Z,100911.59
2023-03-29T18:26:51.794Z,100914.19
2023-03-29T18:29:18.432Z,100916.75
2023-03-29T18:31:46.309Z,100901.22
2023-03-29T18:34:13.088Z,100920.19
2023-03-29T18:36:39.693Z,100916.72
2023-03-29T18:39:06.507Z,100914.97
2023-03-29T18:41:34.849Z,100894.25
2023-03-29T18:44:01.489Z,100919.25
2023-03-29T18:46:31.266Z,100926.94
2023-03-29T18:48:59.348Z,100915.72
2023-03-29T18:51:28.073Z,100920.88
2023-03-29T18:53:55.654Z,100904.50
2023-03-29T18:56:22.727Z,100907.06
2023-03-29T18:58:49.316Z,100912.22
2023-03-29T19:01:16.226Z,100888.16
2023-03-29T19:03:42.865Z,100913.13
2023-03-29T19:06:10.115Z,100896.72
2023-03-29T19:08:39.608Z,100913.91
2023-03-29T19:11:08.422Z,100921.69
2023-03-29T19:13:35.844Z,100899.25
2023-03-29T19:16:03.732Z,100876.78
2023-03-29T19:18:30.525Z,100882.84
2023-03-29T19:20:57.104Z,100894.94
2023-03-29T19:23:26.013Z,100873.38
2023-03-29T19:25:54.544Z,100870.75
2023-03-29T19:28:21.881Z,100886.25
2023-03-29T19:30:49.082Z,100885.41
2023-03-29T19:33:16.148Z,100870.72
2023-03-29T19:35:43.400Z,100852.75
2023-03-29T19:38:09.987Z,100864.88
2023-03-29T19:40:36.745Z,100819.13
2023-03-29T19:43:03.745Z,100844.19
2023-03-29T19:45:30.616Z,100851.03
2023-03-29T19:48:02.220Z,100851.06
2023-03-29T19:51:33.073Z,100839.88
2023-03-29T19:53:59.679Z,100839.91
2023-03-29T19:56:27.945Z,100831.31
2023-03-29T19:58:54.440Z,100833.03
2023-03-29T20:01:21.865Z,100822.69
2023-03-29T20:03:49.491Z,100814.03
2023-03-29T20:06:17.672Z,100819.25
2023-03-29T20:08:45.229Z,100815.78
2023-03-29T20:11:13.590Z,100806.31
2023-03-29T20:13:44.769Z,100805.41
2023-03-29T20:16:14.333Z,100787.34
2023-03-29T20:18:40.998Z,100797.66
2023-03-29T20:21:08.930Z,100770.94
2023-03-29T20:23:35.628Z,100790.81
2023-03-29T20:26:02.403Z,100789.03
2023-03-29T20:28:29.297Z,100775.28
2023-03-29T20:30:55.871Z,100758.84
2023-03-29T20:33:22.712Z,100770.06
2023-03-29T20:35:49.612Z,100758.88
2023-03-29T20:38:16.193Z,100742.56
2023-03-29T20:40:42.871Z,100746.84
2023-03-29T20:43:18.430Z,100739.97
2023-03-29T20:45:52.701Z,100740.03
2023-03-29T20:48:23.216Z,100724.56
2023-03-29T20:50:51.444Z,100714.25
2023-03-29T20:53:18.479Z,100709.88
2023-03-29T20:55:45.169Z,100705.66
2023-03-29T20:58:11.811Z,100691.91
2023-03-29T21:00:38.399Z,100694.50
2023-03-29T21:03:05.113Z,100686.78
2023-03-29T21:05:33.411Z,100697.13
2023-03-29T21:08:00.686Z,100672.16
2023-03-29T21:10:28.234Z,100680.78
2023-03-29T21:12:54.788Z,100667.03
2023-03-29T21:15:21.300Z,100672.19
2023-03-29T21:17:47.869Z,100665.28
2023-03-29T21:20:14.953Z,100673.88
2023-03-29T21:22:44.945Z,100670.47
2023-03-29T21:25:14.512Z,100654.94
2023-03-29T21:27:43.833Z,100664.41
2023-03-29T21:30:10.946Z,100659.25
2023-03-29T21:32:38.027Z,100657.56
2023-03-29T21:35:04.944Z,100654.97
2023-03-29T21:37:31.547Z,100612.78
2023-03-29T21:39:58.140Z,100623.09
2023-03-29T21:42:24.789Z,100624.81
2023-03-29T21:44:51.388Z,100625.69
2023-03-29T21:47:18.021Z,100605.91
2023-03-29T21:49:44.547Z,100636.88
2023-03-29T21:52:11.157Z,100618.81
2023-03-29T21:54:37.714Z,100633.44
2023-03-29T21:57:04.339Z,100631.72
2023-03-29T21:59:31.031Z,100631.72
2023-03-29T22:01:57.727Z,100617.09
2023-03-29T22:04:36.059Z,100611.09
2023-03-29T22:07:04.719Z,100625.72
2023-03-29T22:09:33.020Z,100621.38
2023-03-29T22:11:59.854Z,100625.69
2023-03-29T22:14:28.543Z,100609.34
2023-03-29T22:16:55.265Z,100643.78
2023-03-29T22:19:21.925Z,100628.28
2023-03-29T22:21:48.767Z,100637.75
2023-03-29T22:24:16.519Z,100628.28
2023-03-29T22:26:44.998Z,100617.13
2023-03-29T22:29:12.188Z,100610.22
2023-03-29T22:31:39.596Z,100614.53
2023-03-29T22:34:06.726Z,100623.13
2023-03-29T22:36:33.610Z,100603.31
2023-03-29T22:39:00.534Z,100603.31
2023-03-29T22:41:28.255Z,100594.72
2023-03-29T22:43:57.226Z,100591.28
2023-03-29T22:46:24.371Z,100608.50
2023-03-29T22:48:51.303Z,100588.72
2023-03-29T22:51:18.088Z,100581.81
2023-03-29T22:53:46.998Z,100593.88
2023-03-29T22:56:15.532Z,100581.81
2023-03-29T22:58:42.748Z,100587.81
2023-03-29T23:01:09.663Z,100591.28
2023-03-29T23:03:36.782Z,100569.78
2023-03-29T23:06:04.141Z,100570.63
2023-03-29T23:08:32.684Z,100568.91
2023-03-29T23:11:00.398Z,100548.25
2023-03-29T23:13:29.102Z,100568.03
2023-03-29T23:15:59.050Z,100550.81
2023-03-29T23:18:27.790Z,100491.47
2023-03-29T23:20:56.552Z,100539.59
2023-03-29T23:23:25.073Z,100549.06
2023-03-29T23:25:53.453Z,100542.19
2023-03-29T23:28:23.623Z,100524.09
2023-03-29T23:31:03.090Z,100531.78
2023-03-29T23:33:33.639Z,100533.50
2023-03-29T23:36:04.736Z,100539.53
2023-03-29T23:38:33.378Z,100534.38
2023-03-29T23:41:02.165Z,100532.63
2023-03-29T23:43:33.751Z,100543.81
2023-03-29T23:46:11.779Z,100528.31
2023-03-29T23:48:38.774Z,100517.94
2023-03-29T23:51:07.767Z,100519.59
2023-03-29T23:53:34.316Z,100516.16
2023-03-29T23:56:03.945Z,100520.41
2023-03-29T23:58:35.901Z,100503.22
